sensor_id;sensor_type;location;lat;lon;timestamp;P1;durP1;ratioP1;P2;durP2;ratioP2
48791;SDS011;34587;48.816;9.420;2024-02-23T00:00:00;4.38;;;0.43;;
48791;SDS011;34587;48.816;9.420;2024-02-23T00:02:30;0.68;;;0.40;;
48791;SDS011;34587;48.816;9.420;2024-02-23T00:04:55;0.40;;;0.40;;
48791;SDS011;34587;48.816;9.420;2024-02-23T00:07:21;0.40;;;0.40;;
48791;SDS011;34587;48.816;9.420;2024-02-23T00:09:46;0.45;;;0.45;;
48791;SDS011;34587;48.816;9.420;2024-02-23T00:12:11;2.28;;;0.40;;
48791;SDS011;34587;48.816;9.420;2024-02-23T00:14:38;0.77;;;0.50;;
48791;SDS011;34587;48.816;9.420;2024-02-23T00:17:04;0.38;;;0.38;;
48791;SDS011;34587;48.816;9.420;2024-02-23T00:19:30;0.50;;;0.50;;
48791;SDS011;34587;48.816;9.420;2024-02-23T00:21:56;2.45;;;0.43;;
48791;SDS011;34587;48.816;9.420;2024-02-23T00:24:21;1.85;;;0.47;;
48791;SDS011;34587;48.816;9.420;2024-02-23T00:26:47;0.40;;;0.40;;
48791;SDS011;34587;48.816;9.420;2024-02-23T00:29:13;0.50;;;0.50;;
48791;SDS011;34587;48.816;9.420;2024-02-23T00:31:39;1.45;;;0.47;;
48791;SDS011;34587;48.816;9.420;2024-02-23T00:34:07;0.30;;;0.30;;
48791;SDS011;34587;48.816;9.420;2024-02-23T00:36:38;0.50;;;0.50;;
48791;SDS011;34587;48.816;9.420;2024-02-23T00:39:04;0.32;;;0.32;;
48791;SDS011;34587;48.816;9.420;2024-02-23T00:41:29;0.40;;;0.40;;
48791;SDS011;34587;48.816;9.420;2024-02-23T00:43:54;1.20;;;0.60;;
48791;SDS011;34587;48.816;9.420;2024-02-23T00:46:20;1.85;;;0.43;;
48791;SDS011;34587;48.816;9.420;2024-02-23T00:48:45;0.40;;;0.40;;
48791;SDS011;34587;48.816;9.420;2024-02-23T00:51:11;0.47;;;0.47;;
48791;SDS011;34587;48.816;9.420;2024-02-23T00:53:36;0.63;;;0.40;;
48791;SDS011;34587;48.816;9.420;2024-02-23T00:56:01;0.30;;;0.30;;
48791;SDS011;34587;48.816;9.420;2024-02-23T00:58:27;0.95;;;0.40;;
48791;SDS011;34587;48.816;9.420;2024-02-23T05:17:13;0.90;;;0.90;;
48791;SDS011;34587;48.816;9.420;2024-02-23T05:19:39;3.78;;;1.00;;
48791;SDS011;34587;48.816;9.420;2024-02-23T05:22:04;1.38;;;1.27;;
48791;SDS011;34587;48.816;9.420;2024-02-23T05:24:29;2.30;;;1.50;;
48791;SDS011;34587;48.816;9.420;2024-02-23T05:26:55;2.03;;;1.33;;
48791;SDS011;34587;48.816;9.420;2024-02-23T05:29:23;2.97;;;1.15;;
48791;SDS011;34587;48.816;9.420;2024-02-23T05:31:49;1.98;;;1.20;;
48791;SDS011;34587;48.816;9.420;2024-02-23T05:34:16;1.23;;;1.15;;
48791;SDS011;34587;48.816;9.420;2024-02-23T05:36:42;2.90;;;0.73;;
48791;SDS011;34587;48.816;9.420;2024-02-23T05:39:08;1.80;;;0.90;;
48791;SDS011;34587;48.816;9.420;2024-02-23T05:41:34;2.17;;;1.25;;
48791;SDS011;34587;48.816;9.420;2024-02-23T05:44:00;1.85;;;0.60;;
48791;SDS011;34587;48.816;9.420;2024-02-23T05:46:26;1.83;;;0.55;;
48791;SDS011;34587;48.816;9.420;2024-02-23T05:48:51;2.72;;;0.93;;
48791;SDS011;34587;48.816;9.420;2024-02-23T05:51:16;2.15;;;0.65;;
48791;SDS011;34587;48.816;9.420;2024-02-23T05:53:41;5.68;;;1.08;;
48791;SDS011;34587;48.816;9.420;2024-02-23T05:56:07;0.82;;;0.63;;
48791;SDS011;34587;48.816;9.420;2024-02-23T05:58:32;2.15;;;0.70;;
48791;SDS011;34587;48.816;9.420;2024-02-23T06:00:58;1.55;;;0.90;;
48791;SDS011;34587;48.816;9.420;2024-02-23T06:03:23;1.38;;;1.00;;
48791;SDS011;34587;48.816;9.420;2024-02-23T06:05:48;1.73;;;0.73;;
48791;SDS011;34587;48.816;9.420;2024-02-23T06:08:13;4.15;;;1.02;;
48791;SDS011;34587;48.816;9.420;2024-02-23T06:10:39;0.70;;;0.70;;
48791;SDS011;34587;48.816;9.420;2024-02-23T06:13:04;1.42;;;0.95;;
48791;SDS011;34587;48.816;9.420;2024-02-23T06:15:29;0.80;;;0.80;;
48791;SDS011;34587;48.816;9.420;2024-02-23T06:17:54;2.22;;;0.80;;
48791;SDS011;34587;48.816;9.420;2024-02-23T06:20:20;3.20;;;0.90;;
48791;SDS011;34587;48.816;9.420;2024-02-23T06:22:45;1.17;;;0.70;;
48791;SDS011;34587;48.816;9.420;2024-02-23T06:25:10;1.42;;;0.60;;
48791;SDS011;34587;48.816;9.420;2024-02-23T06:27:37;15.48;;;6.75;;
48791;SDS011;34587;48.816;9.420;2024-02-23T06:30:02;6.25;;;2.78;;
48791;SDS011;34587;48.816;9.420;2024-02-23T06:32:28;1.77;;;1.08;;
48791;SDS011;34587;48.816;9.420;2024-02-23T06:34:54;2.55;;;1.20;;
48791;SDS011;34587;48.816;9.420;2024-02-23T06:37:20;1.02;;;1.00;;
48791;SDS011;34587;48.816;9.420;2024-02-23T06:39:45;2.83;;;1.33;;
48791;SDS011;34587;48.816;9.420;2024-02-23T06:42:14;1.27;;;0.95;;
48791;SDS011;34587;48.816;9.420;2024-02-23T06:44:40;3.08;;;1.00;;
48791;SDS011;34587;48.816;9.420;2024-02-23T06:47:06;2.97;;;1.40;;
48791;SDS011;34587;48.816;9.420;2024-02-23T06:49:31;5.88;;;1.17;;
48791;SDS011;34587;48.816;9.420;2024-02-23T06:51:57;4.28;;;1.60;;
48791;SDS011;34587;48.816;9.420;2024-02-23T06:54:22;3.28;;;2.13;;
48791;SDS011;34587;48.816;9.420;2024-02-23T06:56:47;2.90;;;1.70;;
48791;SDS011;34587;48.816;9.420;2024-02-23T06:59:12;3.38;;;1.83;;
48791;SDS011;34587;48.816;9.420;2024-02-23T07:01:47;3.03;;;1.05;;
48791;SDS011;34587;48.816;9.420;2024-02-23T07:04:16;1.40;;;1.30;;
48791;SDS011;34587;48.816;9.420;2024-02-23T07:06:41;3.40;;;1.20;;
48791;SDS011;34587;48.816;9.420;2024-02-23T07:09:06;1.50;;;1.00;;
48791;SDS011;34587;48.816;9.420;2024-02-23T07:11:33;2.85;;;1.25;;
48791;SDS011;34587;48.816;9.420;2024-02-23T07:13:58;3.42;;;1.10;;
48791;SDS011;34587;48.816;9.420;2024-02-23T07:16:23;1.40;;;0.90;;
48791;SDS011;34587;48.816;9.420;2024-02-23T07:18:48;1.15;;;1.05;;
48791;SDS011;34587;48.816;9.420;2024-02-23T07:21:17;1.10;;;0.90;;
48791;SDS011;34587;48.816;9.420;2024-02-23T07:23:43;1.70;;;1.08;;
48791;SDS011;34587;48.816;9.420;2024-02-23T07:26:08;1.30;;;0.82;;
48791;SDS011;34587;48.816;9.420;2024-02-23T07:28:33;1.48;;;0.90;;
48791;SDS011;34587;48.816;9.420;2024-02-23T07:30:59;2.17;;;1.30;;
48791;SDS011;34587;48.816;9.420;2024-02-23T07:33:24;3.33;;;1.00;;
48791;SDS011;34587;48.816;9.420;2024-02-23T07:35:49;1.05;;;0.70;;
48791;SDS011;34587;48.816;9.420;2024-02-23T07:38:14;1.05;;;1.00;;
48791;SDS011;34587;48.816;9.420;2024-02-23T07:40:40;2.78;;;1.27;;
48791;SDS011;34587;48.816;9.420;2024-02-23T07:43:05;4.82;;;1.10;;
48791;SDS011;34587;48.816;9.420;2024-02-23T07:45:30;3.05;;;1.60;;
48791;SDS011;34587;48.816;9.420;2024-02-23T07:47:57;1.58;;;1.00;;
48791;SDS011;34587;48.816;9.420;2024-02-23T07:50:23;0.50;;;0.50;;
48791;SDS011;34587;48.816;9.420;2024-02-23T07:52:48;0.57;;;0.57;;
48791;SDS011;34587;48.816;9.420;2024-02-23T07:55:13;1.20;;;0.80;;
48791;SDS011;34587;48.816;9.420;2024-02-23T07:57:39;3.75;;;1.23;;
48791;SDS011;34587;48.816;9.420;2024-02-23T08:00:05;2.50;;;0.68;;
48791;SDS011;34587;48.816;9.420;2024-02-23T08:02:32;0.68;;;0.68;;
48791;SDS011;34587;48.816;9.420;2024-02-23T08:04:57;2.75;;;0.95;;
48791;SDS011;34587;48.816;9.420;2024-02-23T08:07:22;3.67;;;0.75;;
48791;SDS011;34587;48.816;9.420;2024-02-23T08:09:48;2.15;;;0.80;;
48791;SDS011;34587;48.816;9.420;2024-02-23T08:12:13;0.65;;;0.65;;
48791;SDS011;34587;48.816;9.420;2024-02-23T08:14:38;2.30;;;1.00;;
48791;SDS011;34587;48.816;9.420;2024-02-23T08:17:04;1.42;;;0.77;;
48791;SDS011;34587;48.816;9.420;2024-02-23T08:19:29;1.38;;;0.85;;
48791;SDS011;34587;48.816;9.420;2024-02-23T08:21:55;4.10;;;0.82;;
48791;SDS011;34587;48.816;9.420;2024-02-23T08:24:20;3.53;;;0.60;;
48791;SDS011;34587;48.816;9.420;2024-02-23T08:26:45;5.25;;;1.10;;
48791;SDS011;34587;48.816;9.420;2024-02-23T08:29:11;1.27;;;1.15;;
48791;SDS011;34587;48.816;9.420;2024-02-23T08:31:36;2.35;;;0.68;;
48791;SDS011;34587;48.816;9.420;2024-02-23T08:34:01;1.00;;;0.90;;
48791;SDS011;34587;48.816;9.420;2024-02-23T08:36:27;0.50;;;0.50;;
48791;SDS011;34587;48.816;9.420;2024-02-23T08:38:52;0.70;;;0.50;;
48791;SDS011;34587;48.816;9.420;2024-02-23T08:41:17;2.03;;;0.80;;
48791;SDS011;34587;48.816;9.420;2024-02-23T08:43:43;3.20;;;0.65;;
48791;SDS011;34587;48.816;9.420;2024-02-23T08:46:08;0.80;;;0.70;;
48791;SDS011;34587;48.816;9.420;2024-02-23T08:48:33;4.60;;;0.80;;
48791;SDS011;34587;48.816;9.420;2024-02-23T08:50:58;1.80;;;0.77;;
48791;SDS011;34587;48.816;9.420;2024-02-23T08:53:24;5.38;;;1.40;;
48791;SDS011;34587;48.816;9.420;2024-02-23T08:55:49;1.70;;;0.60;;
48791;SDS011;34587;48.816;9.420;2024-02-23T08:58:14;2.58;;;0.85;;
48791;SDS011;34587;48.816;9.420;2024-02-23T09:00:39;6.85;;;0.80;;
48791;SDS011;34587;48.816;9.420;2024-02-23T09:03:05;1.95;;;0.60;;
48791;SDS011;34587;48.816;9.420;2024-02-23T09:05:30;2.17;;;0.80;;
48791;SDS011;34587;48.816;9.420;2024-02-23T09:07:55;1.10;;;0.60;;
48791;SDS011;34587;48.816;9.420;2024-02-23T09:10:21;2.75;;;0.77;;
48791;SDS011;34587;48.816;9.420;2024-02-23T09:12:46;2.67;;;0.90;;
48791;SDS011;34587;48.816;9.420;2024-02-23T09:15:12;1.27;;;0.60;;
48791;SDS011;34587;48.816;9.420;2024-02-23T09:17:39;7.38;;;0.80;;
48791;SDS011;34587;48.816;9.420;2024-02-23T09:20:05;4.38;;;0.98;;
48791;SDS011;34587;48.816;9.420;2024-02-23T09:22:32;3.28;;;1.02;;
48791;SDS011;34587;48.816;9.420;2024-02-23T09:24:57;2.50;;;0.63;;
48791;SDS011;34587;48.816;9.420;2024-02-23T09:27:23;3.25;;;0.70;;
48791;SDS011;34587;48.816;9.420;2024-02-23T09:29:48;1.83;;;0.75;;
48791;SDS011;34587;48.816;9.420;2024-02-23T09:32:14;4.95;;;0.75;;
48791;SDS011;34587;48.816;9.420;2024-02-23T09:34:39;2.17;;;0.98;;
48791;SDS011;34587;48.816;9.420;2024-02-23T09:37:04;1.13;;;0.68;;
48791;SDS011;34587;48.816;9.420;2024-02-23T09:39:30;0.98;;;0.60;;
48791;SDS011;34587;48.816;9.420;2024-02-23T09:41:55;2.17;;;0.82;;
48791;SDS011;34587;48.816;9.420;2024-02-23T09:44:25;7.57;;;0.80;;
48791;SDS011;34587;48.816;9.420;2024-02-23T09:46:56;0.57;;;0.57;;
48791;SDS011;34587;48.816;9.420;2024-02-23T09:49:22;5.22;;;1.08;;
48791;SDS011;34587;48.816;9.420;2024-02-23T09:51:48;6.32;;;1.70;;
48791;SDS011;34587;48.816;9.420;2024-02-23T09:54:13;4.03;;;0.90;;
48791;SDS011;34587;48.816;9.420;2024-02-23T09:56:39;0.95;;;0.50;;
48791;SDS011;34587;48.816;9.420;2024-02-23T09:59:04;1.20;;;0.52;;
48791;SDS011;34587;48.816;9.420;2024-02-23T10:01:30;2.53;;;1.02;;
48791;SDS011;34587;48.816;9.420;2024-02-23T10:03:57;0.95;;;0.70;;
48791;SDS011;34587;48.816;9.420;2024-02-23T10:06:25;2.88;;;1.00;;
48791;SDS011;34587;48.816;9.420;2024-02-23T10:08:50;1.98;;;0.95;;
48791;SDS011;34587;48.816;9.420;2024-02-23T10:11:19;1.98;;;1.05;;
48791;SDS011;34587;48.816;9.420;2024-02-23T10:13:46;0.77;;;0.68;;
48791;SDS011;34587;48.816;9.420;2024-02-23T10:16:14;3.95;;;0.57;;
48791;SDS011;34587;48.816;9.420;2024-02-23T10:18:40;5.22;;;1.10;;
48791;SDS011;34587;48.816;9.420;2024-02-23T10:21:05;3.78;;;0.80;;
48791;SDS011;34587;48.816;9.420;2024-02-23T10:23:31;2.13;;;0.80;;
48791;SDS011;34587;48.816;9.420;2024-02-23T10:25:56;1.63;;;0.77;;
48791;SDS011;34587;48.816;9.420;2024-02-23T10:28:22;3.90;;;0.90;;
48791;SDS011;34587;48.816;9.420;2024-02-23T10:30:48;2.38;;;0.88;;
48791;SDS011;34587;48.816;9.420;2024-02-23T10:33:13;1.52;;;0.88;;
48791;SDS011;34587;48.816;9.420;2024-02-23T10:35:39;3.83;;;0.90;;
48791;SDS011;34587;48.816;9.420;2024-02-23T10:38:08;1.95;;;0.70;;
48791;SDS011;34587;48.816;9.420;2024-02-23T10:40:38;6.75;;;0.75;;
48791;SDS011;34587;48.816;9.420;2024-02-23T10:43:05;3.20;;;1.27;;
48791;SDS011;34587;48.816;9.420;2024-02-23T10:45:38;2.65;;;0.98;;
48791;SDS011;34587;48.816;9.420;2024-02-23T10:48:05;11.65;;;1.00;;
48791;SDS011;34587;48.816;9.420;2024-02-23T10:50:33;6.63;;;0.90;;
48791;SDS011;34587;48.816;9.420;2024-02-23T10:53:00;4.22;;;0.77;;
48791;SDS011;34587;48.816;9.420;2024-02-23T10:55:26;4.15;;;0.82;;
48791;SDS011;34587;48.816;9.420;2024-02-23T10:57:51;4.70;;;1.10;;
48791;SDS011;34587;48.816;9.420;2024-02-23T11:00:18;1.70;;;0.70;;
48791;SDS011;34587;48.816;9.420;2024-02-23T11:02:48;1.95;;;0.82;;
48791;SDS011;34587;48.816;9.420;2024-02-23T11:05:16;1.02;;;0.85;;
48791;SDS011;34587;48.816;9.420;2024-02-23T11:07:43;2.70;;;1.20;;
48791;SDS011;34587;48.816;9.420;2024-02-23T11:10:13;0.75;;;0.70;;
48791;SDS011;34587;48.816;9.420;2024-02-23T11:12:38;2.85;;;0.70;;
48791;SDS011;34587;48.816;9.420;2024-02-23T11:15:04;1.40;;;0.68;;
48791;SDS011;34587;48.816;9.420;2024-02-23T11:17:30;1.42;;;0.80;;
48791;SDS011;34587;48.816;9.420;2024-02-23T11:19:57;2.88;;;0.88;;
48791;SDS011;34587;48.816;9.420;2024-02-23T11:22:26;4.22;;;0.82;;
48791;SDS011;34587;48.816;9.420;2024-02-23T11:24:52;0.88;;;0.50;;
48791;SDS011;34587;48.816;9.420;2024-02-23T11:27:18;5.07;;;0.65;;
48791;SDS011;34587;48.816;9.420;2024-02-23T11:29:46;4.97;;;0.80;;
48791;SDS011;34587;48.816;9.420;2024-02-23T11:32:14;2.13;;;0.80;;
48791;SDS011;34587;48.816;9.420;2024-02-23T11:34:40;4.10;;;0.82;;
48791;SDS011;34587;48.816;9.420;2024-02-23T11:37:09;2.60;;;0.77;;
48791;SDS011;34587;48.816;9.420;2024-02-23T11:39:37;2.00;;;0.55;;
48791;SDS011;34587;48.816;9.420;2024-02-23T11:42:04;2.03;;;0.57;;
48791;SDS011;34587;48.816;9.420;2024-02-23T11:44:29;1.02;;;0.80;;
48791;SDS011;34587;48.816;9.420;2024-02-23T11:46:55;3.20;;;0.85;;
48791;SDS011;34587;48.816;9.420;2024-02-23T11:49:20;3.03;;;1.77;;
48791;SDS011;34587;48.816;9.420;2024-02-23T11:51:45;2.95;;;0.63;;
48791;SDS011;34587;48.816;9.420;2024-02-23T11:54:11;3.70;;;0.90;;
48791;SDS011;34587;48.816;9.420;2024-02-23T11:56:36;4.43;;;0.93;;
48791;SDS011;34587;48.816;9.420;2024-02-23T11:59:02;1.52;;;0.90;;
48791;SDS011;34587;48.816;9.420;2024-02-23T12:01:30;4.85;;;0.80;;
48791;SDS011;34587;48.816;9.420;2024-02-23T12:03:56;3.50;;;0.75;;
48791;SDS011;34587;48.816;9.420;2024-02-23T12:06:22;3.00;;;0.70;;
48791;SDS011;34587;48.816;9.420;2024-02-23T12:08:47;3.85;;;1.00;;
48791;SDS011;34587;48.816;9.420;2024-02-23T12:11:13;4.80;;;0.90;;
48791;SDS011;34587;48.816;9.420;2024-02-23T12:13:39;2.92;;;0.90;;
48791;SDS011;34587;48.816;9.420;2024-02-23T12:16:06;2.40;;;0.80;;
48791;SDS011;34587;48.816;9.420;2024-02-23T12:18:35;3.05;;;0.73;;
48791;SDS011;34587;48.816;9.420;2024-02-23T12:21:02;2.88;;;0.90;;
48791;SDS011;34587;48.816;9.420;2024-02-23T12:23:40;1.25;;;0.50;;
48791;SDS011;34587;48.816;9.420;2024-02-23T12:26:10;5.13;;;1.42;;
48791;SDS011;34587;48.816;9.420;2024-02-23T12:28:38;0.75;;;0.75;;
48791;SDS011;34587;48.816;9.420;2024-02-23T12:31:04;4.90;;;0.77;;
48791;SDS011;34587;48.816;9.420;2024-02-23T12:33:36;3.40;;;0.80;;
48791;SDS011;34587;48.816;9.420;2024-02-23T12:36:04;3.50;;;0.70;;
48791;SDS011;34587;48.816;9.420;2024-02-23T12:38:30;2.33;;;0.73;;
48791;SDS011;34587;48.816;9.420;2024-02-23T12:40:55;5.72;;;0.95;;
48791;SDS011;34587;48.816;9.420;2024-02-23T12:43:21;2.63;;;0.90;;
48791;SDS011;34587;48.816;9.420;2024-02-23T12:45:49;3.72;;;1.00;;
48791;SDS011;34587;48.816;9.420;2024-02-23T12:48:15;1.08;;;0.73;;
48791;SDS011;34587;48.816;9.420;2024-02-23T12:50:41;2.40;;;0.77;;
48791;SDS011;34587;48.816;9.420;2024-02-23T12:53:08;5.43;;;1.08;;
48791;SDS011;34587;48.816;9.420;2024-02-23T12:55:34;1.52;;;0.80;;
48791;SDS011;34587;48.816;9.420;2024-02-23T12:58:01;4.00;;;1.10;;
48791;SDS011;34587;48.816;9.420;2024-02-23T13:00:27;4.88;;;1.02;;
48791;SDS011;34587;48.816;9.420;2024-02-23T13:02:52;9.75;;;0.98;;
48791;SDS011;34587;48.816;9.420;2024-02-23T13:05:17;4.40;;;0.82;;
48791;SDS011;34587;48.816;9.420;2024-02-23T13:07:42;3.15;;;0.77;;
48791;SDS011;34587;48.816;9.420;2024-02-23T13:10:09;5.65;;;1.20;;
48791;SDS011;34587;48.816;9.420;2024-02-23T13:12:35;1.65;;;0.80;;
48791;SDS011;34587;48.816;9.420;2024-02-23T13:15:00;7.80;;;1.48;;
48791;SDS011;34587;48.816;9.420;2024-02-23T13:17:25;8.20;;;0.85;;
48791;SDS011;34587;48.816;9.420;2024-02-23T13:19:51;2.92;;;1.00;;
48791;SDS011;34587;48.816;9.420;2024-02-23T13:22:16;1.50;;;0.63;;
48791;SDS011;34587;48.816;9.420;2024-02-23T13:24:41;5.47;;;0.88;;
48791;SDS011;34587;48.816;9.420;2024-02-23T13:27:07;15.68;;;1.35;;
48791;SDS011;34587;48.816;9.420;2024-02-23T13:29:32;3.20;;;0.77;;
48791;SDS011;34587;48.816;9.420;2024-02-23T13:31:57;1.48;;;0.63;;
48791;SDS011;34587;48.816;9.420;2024-02-23T13:34:22;1.73;;;0.80;;
48791;SDS011;34587;48.816;9.420;2024-02-23T13:36:48;1.15;;;0.60;;
48791;SDS011;34587;48.816;9.420;2024-02-23T13:39:14;3.10;;;0.90;;
48791;SDS011;34587;48.816;9.420;2024-02-23T13:41:40;3.65;;;0.70;;
48791;SDS011;34587;48.816;9.420;2024-02-23T13:44:05;3.05;;;0.75;;
48791;SDS011;34587;48.816;9.420;2024-02-23T13:46:31;1.05;;;0.70;;
48791;SDS011;34587;48.816;9.420;2024-02-23T13:49:03;8.55;;;0.90;;
48791;SDS011;34587;48.816;9.420;2024-02-23T13:51:30;5.97;;;0.98;;
48791;SDS011;34587;48.816;9.420;2024-02-23T13:53:58;1.45;;;0.82;;
48791;SDS011;34587;48.816;9.420;2024-02-23T13:56:24;3.40;;;0.95;;
48791;SDS011;34587;48.816;9.420;2024-02-23T13:58:49;5.35;;;1.27;;
48791;SDS011;34587;48.816;9.420;2024-02-23T14:01:15;3.17;;;0.95;;
48791;SDS011;34587;48.816;9.420;2024-02-23T14:03:40;3.92;;;0.70;;
48791;SDS011;34587;48.816;9.420;2024-02-23T14:06:06;2.35;;;0.80;;
48791;SDS011;34587;48.816;9.420;2024-02-23T14:08:32;2.78;;;0.80;;
48791;SDS011;34587;48.816;9.420;2024-02-23T14:10:59;4.28;;;0.77;;
48791;SDS011;34587;48.816;9.420;2024-02-23T14:13:25;5.63;;;1.05;;
48791;SDS011;34587;48.816;9.420;2024-02-23T14:15:50;5.35;;;1.10;;
48791;SDS011;34587;48.816;9.420;2024-02-23T14:18:16;4.53;;;1.55;;
48791;SDS011;34587;48.816;9.420;2024-02-23T14:20:41;2.90;;;0.98;;
48791;SDS011;34587;48.816;9.420;2024-02-23T14:23:07;4.88;;;0.85;;
48791;SDS011;34587;48.816;9.420;2024-02-23T14:25:32;1.63;;;0.65;;
48791;SDS011;34587;48.816;9.420;2024-02-23T14:27:57;3.85;;;0.90;;
48791;SDS011;34587;48.816;9.420;2024-02-23T14:30:23;3.72;;;0.82;;
48791;SDS011;34587;48.816;9.420;2024-02-23T14:32:48;4.80;;;1.33;;
48791;SDS011;34587;48.816;9.420;2024-02-23T14:35:14;7.53;;;1.08;;
48791;SDS011;34587;48.816;9.420;2024-02-23T14:37:39;1.05;;;0.70;;
48791;SDS011;34587;48.816;9.420;2024-02-23T14:40:05;2.53;;;0.98;;
48791;SDS011;34587;48.816;9.420;2024-02-23T14:42:31;3.83;;;1.05;;
48791;SDS011;34587;48.816;9.420;2024-02-23T14:44:56;7.18;;;1.38;;
48791;SDS011;34587;48.816;9.420;2024-02-23T14:47:22;5.80;;;1.02;;
48791;SDS011;34587;48.816;9.420;2024-02-23T14:49:47;4.35;;;1.02;;
48791;SDS011;34587;48.816;9.420;2024-02-23T14:52:13;5.32;;;1.10;;
48791;SDS011;34587;48.816;9.420;2024-02-23T14:54:39;1.88;;;1.02;;
48791;SDS011;34587;48.816;9.420;2024-02-23T14:57:05;5.55;;;1.02;;
48791;SDS011;34587;48.816;9.420;2024-02-23T14:59:30;4.22;;;1.30;;
48791;SDS011;34587;48.816;9.420;2024-02-23T15:01:56;1.98;;;1.35;;
48791;SDS011;34587;48.816;9.420;2024-02-23T15:04:21;5.13;;;1.08;;
48791;SDS011;34587;48.816;9.420;2024-02-23T15:06:47;4.70;;;2.30;;
48791;SDS011;34587;48.816;9.420;2024-02-23T15:09:12;9.40;;;1.40;;
48791;SDS011;34587;48.816;9.420;2024-02-23T15:11:38;7.68;;;1.20;;
48791;SDS011;34587;48.816;9.420;2024-02-23T15:14:03;2.28;;;0.90;;
48791;SDS011;34587;48.816;9.420;2024-02-23T15:16:28;11.18;;;1.27;;
48791;SDS011;34587;48.816;9.420;2024-02-23T15:18:56;1.00;;;0.70;;
48791;SDS011;34587;48.816;9.420;2024-02-23T15:21:21;2.42;;;0.93;;
48791;SDS011;34587;48.816;9.420;2024-02-23T15:23:47;4.30;;;1.08;;
48791;SDS011;34587;48.816;9.420;2024-02-23T15:26:12;3.10;;;0.80;;
48791;SDS011;34587;48.816;9.420;2024-02-23T15:28:38;6.32;;;0.80;;
48791;SDS011;34587;48.816;9.420;2024-02-23T15:31:03;2.85;;;0.93;;
48791;SDS011;34587;48.816;9.420;2024-02-23T15:33:28;6.75;;;0.95;;
48791;SDS011;34587;48.816;9.420;2024-02-23T15:35:54;4.30;;;1.17;;
48791;SDS011;34587;48.816;9.420;2024-02-23T15:38:20;3.60;;;1.00;;
48791;SDS011;34587;48.816;9.420;2024-02-23T15:40:45;6.10;;;0.88;;
48791;SDS011;34587;48.816;9.420;2024-02-23T15:43:10;4.75;;;0.80;;
48791;SDS011;34587;48.816;9.420;2024-02-23T15:45:35;5.57;;;1.10;;
48791;SDS011;34587;48.816;9.420;2024-02-23T15:48:01;8.10;;;1.35;;
48791;SDS011;34587;48.816;9.420;2024-02-23T15:50:26;4.40;;;1.10;;
48791;SDS011;34587;48.816;9.420;2024-02-23T15:52:53;6.22;;;1.13;;
48791;SDS011;34587;48.816;9.420;2024-02-23T15:55:19;4.63;;;1.13;;
48791;SDS011;34587;48.816;9.420;2024-02-23T15:57:44;2.65;;;0.90;;
48791;SDS011;34587;48.816;9.420;2024-02-23T16:00:09;4.47;;;1.25;;
48791;SDS011;34587;48.816;9.420;2024-02-23T16:02:37;3.25;;;1.10;;
48791;SDS011;34587;48.816;9.420;2024-02-23T16:05:03;9.77;;;1.08;;
48791;SDS011;34587;48.816;9.420;2024-02-23T16:07:29;1.50;;;0.77;;
48791;SDS011;34587;48.816;9.420;2024-02-23T16:09:54;1.48;;;1.08;;
48791;SDS011;34587;48.816;9.420;2024-02-23T16:12:19;9.98;;;1.30;;
48791;SDS011;34587;48.816;9.420;2024-02-23T16:14:45;5.05;;;1.30;;
48791;SDS011;34587;48.816;9.420;2024-02-23T16:17:10;4.35;;;1.23;;
48791;SDS011;34587;48.816;9.420;2024-02-23T16:19:35;6.43;;;1.48;;
48791;SDS011;34587;48.816;9.420;2024-02-23T16:22:01;2.40;;;0.90;;
48791;SDS011;34587;48.816;9.420;2024-02-23T16:24:27;2.45;;;1.20;;
48791;SDS011;34587;48.816;9.420;2024-02-23T16:26:53;3.60;;;1.20;;
48791;SDS011;34587;48.816;9.420;2024-02-23T16:29:18;5.00;;;1.00;;
48791;SDS011;34587;48.816;9.420;2024-02-23T16:31:44;5.57;;;1.20;;
48791;SDS011;34587;48.816;9.420;2024-02-23T16:34:09;5.75;;;1.90;;
48791;SDS011;34587;48.816;9.420;2024-02-23T16:36:35;8.35;;;1.75;;
48791;SDS011;34587;48.816;9.420;2024-02-23T16:39:00;3.95;;;0.90;;
48791;SDS011;34587;48.816;9.420;2024-02-23T16:41:25;9.57;;;1.60;;
48791;SDS011;34587;48.816;9.420;2024-02-23T16:43:51;4.82;;;1.20;;
48791;SDS011;34587;48.816;9.420;2024-02-23T16:46:16;3.85;;;1.20;;
48791;SDS011;34587;48.816;9.420;2024-02-23T16:48:42;12.23;;;1.48;;
48791;SDS011;34587;48.816;9.420;2024-02-23T16:51:07;3.05;;;1.15;;
48791;SDS011;34587;48.816;9.420;2024-02-23T16:53:32;3.47;;;1.25;;
48791;SDS011;34587;48.816;9.420;2024-02-23T16:55:58;5.93;;;1.80;;
48791;SDS011;34587;48.816;9.420;2024-02-23T16:58:26;2.28;;;1.25;;
48791;SDS011;34587;48.816;9.420;2024-02-23T17:00:57;6.70;;;1.40;;
48791;SDS011;34587;48.816;9.420;2024-02-23T17:03:26;7.65;;;1.20;;
48791;SDS011;34587;48.816;9.420;2024-02-23T17:05:51;3.53;;;0.95;;
48791;SDS011;34587;48.816;9.420;2024-02-23T17:08:16;3.42;;;1.30;;
48791;SDS011;34587;48.816;9.420;2024-02-23T17:10:42;7.60;;;1.50;;
48791;SDS011;34587;48.816;9.420;2024-02-23T17:13:07;2.60;;;1.23;;
48791;SDS011;34587;48.816;9.420;2024-02-23T17:15:32;6.93;;;1.30;;
48791;SDS011;34587;48.816;9.420;2024-02-23T17:17:58;3.00;;;1.33;;
48791;SDS011;34587;48.816;9.420;2024-02-23T17:20:23;3.88;;;2.40;;
48791;SDS011;34587;48.816;9.420;2024-02-23T17:22:48;4.55;;;2.20;;
48791;SDS011;34587;48.816;9.420;2024-02-23T17:25:13;6.30;;;2.00;;
48791;SDS011;34587;48.816;9.420;2024-02-23T17:27:39;16.23;;;4.10;;
48791;SDS011;34587;48.816;9.420;2024-02-23T17:30:05;8.00;;;2.00;;
48791;SDS011;34587;48.816;9.420;2024-02-23T17:32:30;3.83;;;1.60;;
48791;SDS011;34587;48.816;9.420;2024-02-23T17:34:56;7.85;;;3.75;;
48791;SDS011;34587;48.816;9.420;2024-02-23T17:37:21;9.02;;;2.35;;
48791;SDS011;34587;48.816;9.420;2024-02-23T17:39:49;4.32;;;1.90;;
48791;SDS011;34587;48.816;9.420;2024-02-23T17:42:14;7.05;;;3.17;;
48791;SDS011;34587;48.816;9.420;2024-02-23T17:44:40;9.05;;;2.67;;
48791;SDS011;34587;48.816;9.420;2024-02-23T17:47:05;4.75;;;2.17;;
48791;SDS011;34587;48.816;9.420;2024-02-23T17:49:30;7.72;;;2.75;;
48791;SDS011;34587;48.816;9.420;2024-02-23T17:51:56;9.07;;;2.50;;
48791;SDS011;34587;48.816;9.420;2024-02-23T17:54:21;8.13;;;2.60;;
48791;SDS011;34587;48.816;9.420;2024-02-23T17:56:46;3.70;;;2.03;;
48791;SDS011;34587;48.816;9.420;2024-02-23T17:59:12;8.68;;;3.33;;
48791;SDS011;34587;48.816;9.420;2024-02-23T18:01:38;8.15;;;2.35;;
48791;SDS011;34587;48.816;9.420;2024-02-23T18:04:04;12.88;;;2.83;;
48791;SDS011;34587;48.816;9.420;2024-02-23T18:06:29;3.03;;;2.13;;
48791;SDS011;34587;48.816;9.420;2024-02-23T18:08:54;8.55;;;2.17;;
48791;SDS011;34587;48.816;9.420;2024-02-23T18:11:19;5.82;;;1.70;;
48791;SDS011;34587;48.816;9.420;2024-02-23T18:13:45;3.40;;;1.65;;
48791;SDS011;34587;48.816;9.420;2024-02-23T18:16:11;4.05;;;1.38;;
48791;SDS011;34587;48.816;9.420;2024-02-23T18:18:38;5.75;;;1.75;;
48791;SDS011;34587;48.816;9.420;2024-02-23T18:21:05;6.43;;;3.13;;
48791;SDS011;34587;48.816;9.420;2024-02-23T18:23:33;10.93;;;5.30;;
48791;SDS011;34587;48.816;9.420;2024-02-23T18:25:58;7.93;;;2.92;;
48791;SDS011;34587;48.816;9.420;2024-02-23T18:28:30;3.55;;;2.03;;
48791;SDS011;34587;48.816;9.420;2024-02-23T18:30:57;4.70;;;1.90;;
48791;SDS011;34587;48.816;9.420;2024-02-23T18:33:22;3.55;;;1.50;;
48791;SDS011;34587;48.816;9.420;2024-02-23T18:35:48;3.97;;;1.73;;
48791;SDS011;34587;48.816;9.420;2024-02-23T18:38:13;6.90;;;1.77;;
48791;SDS011;34587;48.816;9.420;2024-02-23T18:40:38;4.80;;;1.38;;
48791;SDS011;34587;48.816;9.420;2024-02-23T18:43:04;7.18;;;1.48;;
48791;SDS011;34587;48.816;9.420;2024-02-23T18:45:30;4.53;;;1.60;;
48791;SDS011;34587;48.816;9.420;2024-02-23T18:47:57;3.25;;;1.73;;
48791;SDS011;34587;48.816;9.420;2024-02-23T18:50:22;4.13;;;1.92;;
48791;SDS011;34587;48.816;9.420;2024-02-23T18:52:47;10.70;;;2.85;;
48791;SDS011;34587;48.816;9.420;2024-02-23T18:55:13;11.10;;;4.18;;